sensor_id;sensor_type;location;lat;lon;timestamp;P1;durP1;ratioP1;P2;durP2;ratioP2
75922;SDS011;64602;47.542;19.090;2023-03-13T07:21:22;11.00;;;4.70;;
75922;SDS011;64602;47.542;19.090;2023-03-13T07:26:24;11.27;;;5.23;;
75922;SDS011;64602;47.542;19.090;2023-03-13T07:31:26;10.18;;;5.15;;
75922;SDS011;64602;47.542;19.090;2023-03-13T07:36:30;10.63;;;5.05;;
75922;SDS011;64602;47.542;19.090;2023-03-13T07:41:36;9.37;;;5.00;;
75922;SDS011;64602;47.542;19.090;2023-03-13T07:46:40;7.95;;;4.47;;
75922;SDS011;64602;47.542;19.090;2023-03-13T07:51:49;11.73;;;5.00;;
75922;SDS011;64602;47.542;19.090;2023-03-13T07:56:51;10.47;;;4.77;;
75922;SDS011;64602;47.542;19.090;2023-03-13T08:01:53;9.75;;;4.85;;
75922;SDS011;64602;47.542;19.090;2023-03-13T08:06:56;11.15;;;4.87;;
75922;SDS011;64602;47.542;19.090;2023-03-13T08:11:58;10.90;;;4.90;;
75922;SDS011;64602;47.542;19.090;2023-03-13T08:17:00;10.10;;;4.80;;
75922;SDS011;64602;47.542;19.090;2023-03-13T08:22:02;10.90;;;4.28;;
75922;SDS011;64602;47.542;19.090;2023-03-13T08:27:04;11.12;;;4.37;;
75922;SDS011;64602;47.542;19.090;2023-03-13T08:32:06;8.70;;;4.10;;
75922;SDS011;64602;47.542;19.090;2023-03-13T08:37:08;8.55;;;4.30;;
75922;SDS011;64602;47.542;19.090;2023-03-13T08:42:11;9.57;;;4.57;;
75922;SDS011;64602;47.542;19.090;2023-03-13T08:47:15;9.67;;;4.50;;
75922;SDS011;64602;47.542;19.090;2023-03-13T08:52:18;11.27;;;5.68;;
75922;SDS011;64602;47.542;19.090;2023-03-13T08:57:20;10.93;;;5.68;;
75922;SDS011;64602;47.542;19.090;2023-03-13T09:02:23;9.63;;;5.07;;
75922;SDS011;64602;47.542;19.090;2023-03-13T09:07:25;10.87;;;4.77;;
75922;SDS011;64602;47.542;19.090;2023-03-13T09:12:28;9.52;;;5.22;;
75922;SDS011;64602;47.542;19.090;2023-03-13T09:17:32;9.50;;;5.10;;
75922;SDS011;64602;47.542;19.090;2023-03-13T09:22:34;7.47;;;4.60;;
75922;SDS011;64602;47.542;19.090;2023-03-13T09:27:36;9.98;;;5.07;;
75922;SDS011;64602;47.542;19.090;2023-03-13T09:32:39;9.23;;;5.00;;
75922;SDS011;64602;47.542;19.090;2023-03-13T09:37:41;9.00;;;4.90;;
75922;SDS011;64602;47.542;19.090;2023-03-13T09:42:45;8.63;;;4.72;;
75922;SDS011;64602;47.542;19.090;2023-03-13T09:47:51;9.85;;;5.40;;
75922;SDS011;64602;47.542;19.090;2023-03-13T09:53:02;11.93;;;5.30;;
75922;SDS011;64602;47.542;19.090;2023-03-13T09:58:18;7.50;;;4.80;;
75922;SDS011;64602;47.542;19.090;2023-03-13T10:03:27;8.43;;;4.95;;
75922;SDS011;64602;47.542;19.090;2023-03-13T10:08:33;9.25;;;5.43;;
75922;SDS011;64602;47.542;19.090;2023-03-13T10:18:43;10.02;;;4.97;;
75922;SDS011;64602;47.542;19.090;2023-03-13T10:23:54;8.20;;;4.68;;
75922;SDS011;64602;47.542;19.090;2023-03-13T10:29:23;9.20;;;4.43;;
75922;SDS011;64602;47.542;19.090;2023-03-13T10:34:26;10.88;;;4.78;;
75922;SDS011;64602;47.542;19.090;2023-03-13T10:39:48;11.25;;;4.40;;
75922;SDS011;64602;47.542;19.090;2023-03-13T10:44:54;8.93;;;4.17;;
75922;SDS011;64602;47.542;19.090;2023-03-13T10:50:01;8.13;;;4.57;;
75922;SDS011;64602;47.542;19.090;2023-03-13T10:55:05;8.38;;;4.70;;
75922;SDS011;64602;47.542;19.090;2023-03-13T11:05:37;8.43;;;5.00;;
75922;SDS011;64602;47.542;19.090;2023-03-13T11:10:54;8.40;;;4.70;;
75922;SDS011;64602;47.542;19.090;2023-03-13T11:21:29;8.77;;;4.87;;
75922;SDS011;64602;47.542;19.090;2023-03-13T11:26:59;8.60;;;4.78;;
75922;SDS011;64602;47.542;19.090;2023-03-13T11:32:30;14.13;;;5.15;;
75922;SDS011;64602;47.542;19.090;2023-03-13T11:37:49;9.03;;;4.90;;
75922;SDS011;64602;47.542;19.090;2023-03-13T12:05:26;12.30;;;5.12;;
75922;SDS011;64602;47.542;19.090;2023-03-13T12:10:34;8.75;;;4.57;;
75922;SDS011;64602;47.542;19.090;2023-03-13T12:15:46;8.13;;;4.60;;
75922;SDS011;64602;47.542;19.090;2023-03-13T12:21:03;12.18;;;5.30;;
75922;SDS011;64602;47.542;19.090;2023-03-13T12:26:17;10.10;;;4.82;;
75922;SDS011;64602;47.542;19.090;2023-03-13T12:31:22;9.77;;;4.20;;
75922;SDS011;64602;47.542;19.090;2023-03-13T12:36:35;7.03;;;4.30;;
75922;SDS011;64602;47.542;19.090;2023-03-13T12:41:43;9.23;;;3.60;;
75922;SDS011;64602;47.542;19.090;2023-03-13T13:13:53;10.50;;;3.58;;
75922;SDS011;64602;47.542;19.090;2023-03-13T13:19:03;7.85;;;3.47;;
75922;SDS011;64602;47.542;19.090;2023-03-13T13:24:40;9.00;;;3.80;;
75922;SDS011;64602;47.542;19.090;2023-03-13T13:29:51;10.43;;;4.00;;
75922;SDS011;64602;47.542;19.090;2023-03-13T13:35:01;9.93;;;3.40;;
75922;SDS011;64602;47.542;19.090;2023-03-13T13:40:17;4.82;;;2.83;;
75922;SDS011;64602;47.542;19.090;2023-03-13T13:45:23;8.87;;;2.80;;
75922;SDS011;64602;47.542;19.090;2023-03-13T13:50:27;6.25;;;2.50;;
75922;SDS011;64602;47.542;19.090;2023-03-13T14:00:41;7.70;;;1.90;;
75922;SDS011;64602;47.542;19.090;2023-03-13T14:05:48;7.87;;;2.15;;
75922;SDS011;64602;47.542;19.090;2023-03-13T14:11:04;7.82;;;2.40;;
75922;SDS011;64602;47.542;19.090;2023-03-13T14:16:20;5.97;;;2.20;;
75922;SDS011;64602;47.542;19.090;2023-03-13T14:21:27;6.80;;;2.10;;
75922;SDS011;64602;47.542;19.090;2023-03-13T14:26:30;6.25;;;1.90;;
75922;SDS011;64602;47.542;19.090;2023-03-13T14:31:34;9.18;;;2.37;;
75922;SDS011;64602;47.542;19.090;2023-03-13T14:37:12;5.77;;;1.13;;
75922;SDS011;64602;47.542;19.090;2023-03-13T14:42:26;7.65;;;1.45;;
75922;SDS011;64602;47.542;19.090;2023-03-13T14:47:28;4.78;;;1.25;;
75922;SDS011;64602;47.542;19.090;2023-03-13T14:52:33;3.37;;;1.27;;
75922;SDS011;64602;47.542;19.090;2023-03-13T14:57:36;4.68;;;1.30;;
75922;SDS011;64602;47.542;19.090;2023-03-13T15:03:12;4.87;;;0.98;;
75922;SDS011;64602;47.542;19.090;2023-03-13T15:08:21;3.60;;;1.30;;
75922;SDS011;64602;47.542;19.090;2023-03-13T15:13:25;3.53;;;1.10;;
75922;SDS011;64602;47.542;19.090;2023-03-13T15:18:33;5.35;;;1.55;;
75922;SDS011;64602;47.542;19.090;2023-03-13T15:23:35;2.90;;;1.23;;
75922;SDS011;64602;47.542;19.090;2023-03-13T15:28:37;3.50;;;0.83;;
75922;SDS011;64602;47.542;19.090;2023-03-13T15:33:40;3.00;;;1.05;;
75922;SDS011;64602;47.542;19.090;2023-03-13T15:38:43;4.03;;;1.30;;
75922;SDS011;64602;47.542;19.090;2023-03-13T15:43:45;5.43;;;1.30;;
75922;SDS011;64602;47.542;19.090;2023-03-13T15:48:47;3.62;;;1.00;;
75922;SDS011;64602;47.542;19.090;2023-03-13T15:53:52;3.75;;;1.10;;
75922;SDS011;64602;47.542;19.090;2023-03-13T15:58:54;3.73;;;1.13;;
75922;SDS011;64602;47.542;19.090;2023-03-13T16:03:56;4.13;;;1.10;;
75922;SDS011;64602;47.542;19.090;2023-03-13T16:08:59;3.58;;;1.17;;
75922;SDS011;64602;47.542;19.090;2023-03-13T16:14:03;2.90;;;1.17;;
75922;SDS011;64602;47.542;19.090;2023-03-13T16:19:05;4.67;;;0.97;;
75922;SDS011;64602;47.542;19.090;2023-03-13T16:24:08;4.45;;;1.23;;
75922;SDS011;64602;47.542;19.090;2023-03-13T16:29:10;2.67;;;0.82;;
75922;SDS011;64602;47.542;19.090;2023-03-13T16:34:14;3.70;;;1.57;;
75922;SDS011;64602;47.542;19.090;2023-03-13T16:39:16;4.78;;;1.00;;
75922;SDS011;64602;47.542;19.090;2023-03-13T16:44:19;2.55;;;0.93;;
75922;SDS011;64602;47.542;19.090;2023-03-13T16:49:21;3.47;;;0.90;;
75922;SDS011;64602;47.542;19.090;2023-03-13T16:54:23;5.37;;;1.30;;
75922;SDS011;64602;47.542;19.090;2023-03-13T16:59:25;6.37;;;1.42;;
75922;SDS011;64602;47.542;19.090;2023-03-13T17:04:27;3.42;;;1.25;;
75922;SDS011;64602;47.542;19.090;2023-03-13T17:09:29;3.87;;;1.10;;
75922;SDS011;64602;47.542;19.090;2023-03-13T17:14:31;5.25;;;1.50;;
75922;SDS011;64602;47.542;19.090;2023-03-13T17:19:34;2.62;;;1.00;;
75922;SDS011;64602;47.542;19.090;2023-03-13T17:24:36;3.30;;;1.33;;
75922;SDS011;64602;47.542;19.090;2023-03-13T17:29:38;3.67;;;1.50;;
75922;SDS011;64602;47.542;19.090;2023-03-13T17:34:40;4.12;;;1.30;;
75922;SDS011;64602;47.542;19.090;2023-03-13T17:39:43;3.30;;;1.50;;
75922;SDS011;64602;47.542;19.090;2023-03-13T17:44:46;4.07;;;1.67;;
75922;SDS011;64602;47.542;19.090;2023-03-13T17:49:48;4.15;;;1.73;;
75922;SDS011;64602;47.542;19.090;2023-03-13T17:54:50;4.03;;;1.75;;
75922;SDS011;64602;47.542;19.090;2023-03-13T17:59:52;3.60;;;1.40;;
75922;SDS011;64602;47.542;19.090;2023-03-13T18:04:54;3.58;;;1.55;;
75922;SDS011;64602;47.542;19.090;2023-03-13T18:09:57;5.05;;;1.40;;
75922;SDS011;64602;47.542;19.090;2023-03-13T18:14:59;4.37;;;1.57;;
75922;SDS011;64602;47.542;19.090;2023-03-13T18:20:01;4.05;;;2.25;;
75922;SDS011;64602;47.542;19.090;2023-03-13T18:25:03;3.72;;;1.92;;
75922;SDS011;64602;47.542;19.090;2023-03-13T18:30:24;2.90;;;1.40;;
75922;SDS011;64602;47.542;19.090;2023-03-13T18:35:27;4.87;;;1.37;;
75922;SDS011;64602;47.542;19.090;2023-03-13T18:40:29;5.30;;;2.08;;
75922;SDS011;64602;47.542;19.090;2023-03-13T18:45:32;8.20;;;2.40;;
75922;SDS011;64602;47.542;19.090;2023-03-13T18:50:34;4.97;;;1.90;;
75922;SDS011;64602;47.542;19.090;2023-03-13T18:55:36;4.25;;;2.05;;
75922;SDS011;64602;47.542;19.090;2023-03-13T19:00:38;5.82;;;2.40;;
75922;SDS011;64602;47.542;19.090;2023-03-13T19:05:41;5.60;;;2.53;;
75922;SDS011;64602;47.542;19.090;2023-03-13T19:10:43;7.07;;;3.10;;
75922;SDS011;64602;47.542;19.090;2023-03-13T19:15:45;5.90;;;3.17;;
75922;SDS011;64602;47.542;19.090;2023-03-13T19:20:47;7.47;;;3.30;;
75922;SDS011;64602;47.542;19.090;2023-03-13T19:25:50;6.37;;;2.60;;
75922;SDS011;64602;47.542;19.090;2023-03-13T19:30:53;6.85;;;3.17;;
75922;SDS011;64602;47.542;19.090;2023-03-13T19:35:55;5.65;;;2.87;;
75922;SDS011;64602;47.542;19.090;2023-03-13T19:40:57;6.77;;;2.77;;
75922;SDS011;64602;47.542;19.090;2023-03-13T19:45:59;7.60;;;2.75;;
75922;SDS011;64602;47.542;19.090;2023-03-13T19:51:01;9.60;;;3.47;;
75922;SDS011;64602;47.542;19.090;2023-03-13T19:56:14;11.83;;;4.77;;
75922;SDS011;64602;47.542;19.090;2023-03-13T20:01:17;10.07;;;4.35;;
75922;SDS011;64602;47.542;19.090;2023-03-13T20:06:24;8.48;;;4.35;;
75922;SDS011;64602;47.542;19.090;2023-03-13T20:11:27;8.33;;;4.60;;
75922;SDS011;64602;47.542;19.090;2023-03-13T20:16:30;9.83;;;4.37;;
75922;SDS011;64602;47.542;19.090;2023-03-13T20:21:36;11.38;;;5.40;;
75922;SDS011;64602;47.542;19.090;2023-03-13T20:26:41;10.38;;;5.07;;
75922;SDS011;64602;47.542;19.090;2023-03-13T20:31:43;12.07;;;4.93;;
75922;SDS011;64602;47.542;19.090;2023-03-13T20:36:46;11.15;;;4.75;;
75922;SDS011;64602;47.542;19.090;2023-03-13T20:41:48;9.55;;;5.00;;
75922;SDS011;64602;47.542;19.090;2023-03-13T20:46:50;8.57;;;4.40;;
75922;SDS011;64602;47.542;19.090;2023-03-13T20:51:52;8.68;;;4.32;;
75922;SDS011;64602;47.542;19.090;2023-03-13T20:56:54;8.63;;;4.28;;
75922;SDS011;64602;47.542;19.090;2023-03-13T21:01:58;8.73;;;4.83;;
75922;SDS011;64602;47.542;19.090;2023-03-13T21:07:01;9.53;;;5.00;;
75922;SDS011;64602;47.542;19.090;2023-03-13T21:12:05;8.65;;;4.45;;
75922;SDS011;64602;47.542;19.090;2023-03-13T21:17:07;9.20;;;3.97;;
75922;SDS011;64602;47.542;19.090;2023-03-13T21:22:11;10.27;;;4.63;;
75922;SDS011;64602;47.542;19.090;2023-03-13T21:27:14;13.90;;;5.70;;
75922;SDS011;64602;47.542;19.090;2023-03-13T21:32:16;14.13;;;5.62;;
75922;SDS011;64602;47.542;19.090;2023-03-13T21:37:20;11.43;;;5.70;;
